Time;durP1;ratioP1;P1;durP2;ratioP2;P2;SDS_P1;SDS_P2;PMS_P1;PMS_P2;Temp;Humidity;BMP_temperature;BMP_pressure;BME280_temperature;BME280_humidity;BME280_pressure;Samples;Min_cycle;Max_cycle;Signal;HPM_P1;HPM_P2
2022/03/24 00:01:10;;;;;;;86.60;50.40;;;;;;;3.86;58.97;99852.17;108692;1281;137109;-60
2022/03/24 00:03:39;;;;;;;92.10;52.70;;;;;;;3.86;58.71;99842.14;108806;1281;22410;-60
2022/03/24 00:06:08;;;;;;;93.80;51.20;;;;;;;3.82;58.86;99835.98;107597;1281;138891;-59
2022/03/24 00:08:36;;;;;;;91.90;52.30;;;;;;;3.78;58.96;99829.48;104389;1281;25100;-59
2022/03/24 00:11:05;;;;;;;98.00;56.80;;;;;;;3.75;59.05;99822.81;108658;1281;137936;-59
2022/03/24 00:13:53;;;;;;;103.10;55.30;;;;;;;3.71;58.97;99817.17;108805;1281;22520;-59
2022/03/24 00:16:22;;;;;;;110.20;60.60;;;;;;;3.68;58.82;99814.23;108780;1281;23137;-60
2022/03/24 00:19:10;;;;;;;;;;;;;;;3.63;59.01;99810.89;108677;1281;138164;-59
2022/03/24 00:21:38;;;;;;;121.10;65.10;;;;;;;3.59;59.14;99808.21;108793;1281;23249;-59
2022/03/24 00:24:08;;;;;;;115.00;67.50;;;;;;;3.55;59.06;99801.90;108679;1281;137707;-60
2022/03/24 00:26:36;;;;;;;119.20;65.30;;;;;;;3.52;58.90;99797.50;108796;1281;22426;-60
2022/03/24 00:29:05;;;;;;;135.50;72.20;;;;;;;3.46;58.96;99793.35;108689;1281;137840;-60
2022/03/24 00:31:35;;;;;;;151.50;81.30;;;;;;;3.41;59.22;99791.77;108777;1281;22266;-59
2022/03/24 00:34:05;;;;;;;151.00;80.70;;;;;;;3.37;59.42;99791.39;108695;1281;22535;-60
2022/03/24 00:36:34;;;;;;;145.00;80.40;;;;;;;3.35;59.56;99785.63;108659;1281;137733;-60
2022/03/24 00:39:04;;;;;;;135.20;74.70;;;;;;;3.33;59.39;99780.39;108799;1281;22415;-60
2022/03/24 00:41:35;;;;;;;122.90;67.80;;;;;;;3.34;59.69;99774.27;108665;1281;138822;-59
2022/03/24 00:44:04;;;;;;;123.80;70.50;;;;;;;3.34;59.49;99771.11;108696;1281;22487;-59
2022/03/24 00:46:33;;;;;;;125.80;65.60;;;;;;;3.35;59.51;99764.08;108800;1281;22439;-59
2022/03/24 00:49:01;;;;;;;119.50;66.30;;;;;;;3.36;59.33;99766.06;108720;1281;137792;-60
2022/03/24 00:51:30;;;;;;;118.50;63.00;;;;;;;3.36;59.41;99758.11;108786;1281;23206;-59
2022/03/24 00:53:58;;;;;;;107.60;60.90;;;;;;;3.38;59.29;99752.73;108683;1281;138079;-59
2022/03/24 00:56:26;;;;;;;109.80;59.70;;;;;;;3.37;59.40;99747.88;108798;1281;23648;-60
2022/03/24 00:58:55;;;;;;;108.50;62.30;;;;;;;3.37;59.09;99743.83;108689;1281;138332;-59
2022/03/24 01:01:23;;;;;;;105.70;58.90;;;;;;;3.36;59.24;99741.75;108788;1281;22433;-59
2022/03/24 01:03:52;;;;;;;109.40;58.80;;;;;;;3.35;59.11;99736.89;108778;1281;23378;-59
2022/03/24 01:06:25;;;;;;;114.80;62.60;;;;;;;3.35;59.19;99735.08;108701;1281;138417;-59
2022/03/24 01:08:54;;;;;;;114.80;59.90;;;;;;;3.34;59.08;99735.95;108821;1281;23201;-59
2022/03/24 01:11:23;;;;;;;111.20;60.40;;;;;;;3.34;59.22;99736.11;108515;1281;137764;-59
2022/03/24 01:13:51;;;;;;;115.80;60.30;;;;;;;3.34;59.11;99733.63;108816;1281;23220;-59
2022/03/24 01:16:23;;;;;;;117.10;64.00;;;;;;;3.34;59.28;99725.71;108671;1281;22464;-59
2022/03/24 01:19:02;;;;;;;113.00;58.50;;;;;;;3.30;59.11;99725.97;108603;1281;137803;-59
2022/03/24 01:21:31;;;;;;;105.90;61.10;;;;;;;3.25;59.30;99716.23;108805;1281;22431;-59
2022/03/24 01:24:00;;;;;;;111.00;61.10;;;;;;;3.20;59.18;99711.08;108697;1281;137455;-59
2022/03/24 01:26:29;;;;;;;105.90;59.90;;;;;;;3.13;59.35;99710.92;108820;1278;22395;-59
2022/03/24 01:28:59;;;;;;;102.90;58.50;;;;;;;3.10;59.43;99707.80;108563;1281;138697;-59
2022/03/24 01:31:28;;;;;;;110.40;59.80;;;;;;;3.07;59.64;99704.93;108676;1281;23467;-59
2022/03/24 01:33:56;;;;;;;102.80;57.70;;;;;;;3.05;59.63;99704.30;108790;1281;23434;-59
2022/03/24 01:36:24;;;;;;;102.70;56.90;;;;;;;3.01;59.74;99701.42;108805;1280;138058;-59
2022/03/24 01:38:53;;;;;;;99.50;57.30;;;;;;;2.98;59.72;99697.97;109014;1280;23147;-59
2022/03/24 01:41:22;;;;;;;102.90;57.20;;;;;;;2.93;59.55;99695.46;108884;1280;137504;-59
2022/03/24 01:43:53;;;;;;;101.80;56.60;;;;;;;2.86;59.59;99691.62;108988;1280;22409;-60
2022/03/24 01:46:22;;;;;;;97.40;57.60;;;;;;;2.79;59.71;99687.70;106793;1280;22590;-59
2022/03/24 01:48:50;;;;;;;112.10;58.40;;;;;;;2.72;59.90;99687.58;108685;1280;137957;-59
2022/03/24 01:51:19;;;;;;;99.50;57.60;;;;;;;2.69;59.86;99682.85;108702;1281;22497;-59
2022/03/24 01:53:47;;;;;;;100.30;56.20;;;;;;;2.66;60.00;99678.94;108614;1281;137295;-59
2022/03/24 01:56:16;;;;;;;97.00;57.30;;;;;;;2.61;60.18;99677.80;108722;1281;22447;-59
2022/03/24 01:58:44;;;;;;;100.70;56.10;;;;;;;2.56;60.25;99674.50;108679;1281;22417;-59
2022/03/24 02:04:14;;;;;;;95.80;52.90;;;;;;;2.51;60.35;99664.08;108738;1281;22554;-59
2022/03/24 02:06:42;;;;;;;102.90;56.30;;;;;;;2.49;60.89;99663.20;108550;1281;139063;-60
2022/03/24 02:09:10;;;;;;;98.60;52.50;;;;;;;2.49;60.71;99660.14;108719;1281;22490;-60
2022/03/24 02:11:40;;;;;;;104.70;53.70;;;;;;;2.48;60.81;99656.70;108414;1283;137476;-59
2022/03/24 02:14:29;;;;;;;93.30;50.80;;;;;;;2.47;60.51;99653.27;108761;1281;23885;-59
2022/03/24 02:16:59;;;;;;;99.70;51.00;;;;;;;2.45;60.99;99650.13;108601;1281;137590;-59
2022/03/24 02:19:47;;;;;;;96.70;50.90;;;;;;;2.44;60.63;99645.59;108751;1281;22552;-59
2022/03/24 02:22:16;;;;;;;99.40;54.40;;;;;;;2.42;60.77;99646.28;108614;1281;22462;-59
2022/03/24 02:24:57;;;;;;;89.20;49.40;;;;;;;2.39;60.79;99647.38;108668;1281;137562;-59
2022/03/24 02:27:25;;;;;;;86.10;47.80;;;;;;;2.37;60.83;99642.58;108766;1281;23513;-59
2022/03/24 02:29:54;;;;;;;82.40;45.90;;;;;;;2.35;60.73;99639.21;108642;1281;138008;-59
2022/03/24 02:32:22;;;;;;;89.40;46.10;;;;;;;2.35;60.99;99638.71;108763;1281;22575;-59
2022/03/24 02:34:52;;;;;;;81.10;42.30;;;;;;;2.36;61.09;99639.17;108599;1281;138414;-59
2022/03/24 02:37:23;;;;;;;85.10;44.20;;;;;;;2.37;60.79;99641.16;108766;1280;22673;-59
2022/03/24 02:39:56;;;;;;;82.80;40.80;;;;;;;2.38;61.01;99643.65;108761;1281;22448;-59
2022/03/24 02:42:26;;;;;;;74.90;38.50;;;;;;;2.40;61.10;99639.20;108616;1280;137337;-59
2022/03/24 02:44:59;;;;;;;81.90;42.10;;;;;;;2.41;61.00;99632.73;108763;1281;22376;-59
2022/03/24 02:47:27;;;;;;;81.20;40.40;;;;;;;2.40;60.93;99631.21;108641;1281;137708;-59
2022/03/24 02:49:57;;;;;;;77.50;39.50;;;;;;;2.36;61.01;99629.83;108711;1281;22451;-59
2022/03/24 02:52:25;;;;;;;75.10;37.80;;;;;;;2.33;61.12;99634.16;108771;1281;22496;-59
2022/03/24 02:54:54;;;;;;;69.90;36.00;;;;;;;2.31;60.89;99630.64;108651;1281;137639;-59
2022/03/24 02:57:22;;;;;;;65.90;37.60;;;;;;;2.30;61.26;99631.85;104766;1281;24325;-58
2022/03/24 02:59:50;;;;;;;73.70;38.70;;;;;;;2.28;61.11;99635.89;108634;1281;137987;-59
2022/03/24 03:02:19;;;;;;;74.30;37.10;;;;;;;2.25;61.12;99635.42;108777;1279;22524;-59
2022/03/24 03:04:49;;;;;;;67.50;36.50;;;;;;;2.20;61.12;99627.09;108702;1281;22242;-59
2022/03/24 03:07:17;;;;;;;65.20;36.50;;;;;;;2.17;61.40;99624.91;108643;1281;137659;-59
2022/03/24 03:09:45;;;;;;;67.70;37.40;;;;;;;2.13;61.46;99618.93;108757;1281;22598;-59
2022/03/24 03:12:16;;;;;;;67.20;33.90;;;;;;;2.09;61.47;99621.39;108657;1280;139056;-59
2022/03/24 03:14:46;;;;;;;64.20;35.40;;;;;;;2.05;61.84;99613.47;108759;1281;22716;-59
2022/03/24 03:17:15;;;;;;;71.10;33.10;;;;;;;2.03;61.85;99613.50;108721;1280;139300;-59
2022/03/24 03:19:45;;;;;;;61.00;35.70;;;;;;;2.01;61.97;99611.64;108978;1279;22501;-59
2022/03/24 03:22:14;;;;;;;61.70;33.20;;;;;;;1.99;61.77;99608.00;108978;1279;22427;-59
2022/03/24 03:24:42;;;;;;;58.10;31.90;;;;;;;1.97;62.04;99606.14;108864;1280;138144;-59
2022/03/24 03:27:12;;;;;;;58.20;31.70;;;;;;;1.94;62.23;99601.31;105258;1280;24425;-59
2022/03/24 03:29:41;;;;;;;60.30;32.40;;;;;;;1.92;62.21;99598.16;108863;1280;137367;-59
2022/03/24 03:32:10;;;;;;;63.00;33.80;;;;;;;1.90;62.33;99599.52;108985;1280;23182;-59
2022/03/24 03:34:40;;;;;;;60.80;32.80;;;;;;;1.88;62.53;99596.27;108987;1279;23082;-59
2022/03/24 03:37:09;;;;;;;58.90;32.60;;;;;;;1.85;62.49;99596.70;108864;1280;139505;-59
2022/03/24 03:39:37;;;;;;;62.40;32.30;;;;;;;1.82;62.85;99596.71;108987;1280;22437;-59
2022/03/24 03:42:07;;;;;;;64.10;33.40;;;;;;;1.80;62.47;99594.77;108891;1280;139232;-59
2022/03/24 03:44:36;;;;;;;59.30;32.50;;;;;;;1.77;62.86;99594.09;108994;1279;22449;-59
2022/03/24 03:47:06;;;;;;;53.50;30.00;;;;;;;1.74;62.95;99591.80;108842;1280;137842;-59
2022/03/24 03:49:35;;;;;;;53.80;29.00;;;;;;;1.72;62.94;99589.23;108976;1279;22472;-59
2022/03/24 03:52:23;;;;;;;51.90;26.20;;;;;;;1.69;63.00;99595.71;108982;1280;22285;-59
2022/03/24 03:54:52;;;;;;;46.00;26.00;;;;;;;1.68;63.18;99600.95;108714;1280;139913;-59
2022/03/24 03:57:20;;;;;;;51.40;27.00;;;;;;;1.68;63.39;99605.12;104933;1281;23179;-58
2022/03/24 03:59:49;;;;;;;52.60;27.00;;;;;;;1.68;63.60;99607.06;108656;1281;138200;-59
2022/03/24 04:02:18;;;;;;;53.20;26.70;;;;;;;1.66;63.26;99606.84;108811;1279;22489;-58
2022/03/24 04:04:47;;;;;;;52.20;26.10;;;;;;;1.62;63.48;99607.27;108776;1280;22457;-59
2022/03/24 04:07:16;;;;;;;51.50;26.60;;;;;;;1.61;63.56;99606.23;108682;1280;138284;-58
2022/03/24 04:10:04;;;;;;;52.20;27.30;;;;;;;1.61;63.73;99604.95;108708;1281;23306;-59
2022/03/24 04:12:34;;;;;;;46.10;26.60;;;;;;;1.63;64.05;99600.75;108646;1281;138085;-59
2022/03/24 04:15:23;;;;;;;49.90;25.70;;;;;;;1.66;63.84;99598.17;108785;1281;23475;-60
2022/03/24 04:17:51;;;;;;;51.60;27.20;;;;;;;1.70;64.04;99599.27;108652;1281;138128;-59
2022/03/24 04:20:39;;;;;;;53.50;27.80;;;;;;;1.74;63.77;99602.37;108832;1281;23300;-59
2022/03/24 04:23:08;;;;;;;57.50;29.00;;;;;;;1.77;63.91;99603.91;108552;1281;138141;-59
2022/03/24 04:25:37;;;;;;;52.00;29.60;;;;;;;1.79;64.02;99610.63;108854;1280;22264;-58
2022/03/24 04:28:07;;;;;;;58.90;30.50;;;;;;;1.81;63.95;99609.61;108755;1281;22552;-59
2022/03/24 04:30:35;;;;;;;54.50;29.00;;;;;;;1.82;63.91;99610.64;108726;1280;138988;-59
2022/03/24 04:33:06;;;;;;;52.80;28.80;;;;;;;1.85;63.90;99612.81;108744;1281;23418;-59
2022/03/24 04:35:36;;;;;;;59.00;32.00;;;;;;;1.89;63.99;99612.02;108672;1281;138225;-59
2022/03/24 04:38:04;;;;;;;63.70;34.50;;;;;;;1.96;64.05;99614.43;108761;1281;22323;-59
2022/03/24 04:40:34;;;;;;;69.90;39.80;;;;;;;2.08;64.01;99615.27;108792;1281;22264;-59
2022/03/24 04:43:04;;;;;;;80.00;40.10;;;;;;;2.24;63.54;99609.16;108657;1281;137653;-59
2022/03/24 04:45:35;;;;;;;83.40;45.60;;;;;;;2.43;63.46;99612.19;108782;1281;23676;-58
2022/03/24 04:48:03;;;;;;;80.10;44.30;;;;;;;2.65;62.88;99615.96;108784;1280;137378;-59
2022/03/24 04:50:32;;;;;;;88.00;49.10;;;;;;;2.89;62.41;99615.94;108756;1280;22584;-59
2022/03/24 04:53:00;;;;;;;89.00;46.50;;;;;;;3.15;61.77;99620.09;108685;1281;138816;-59
2022/03/24 04:55:28;;;;;;;95.70;48.00;;;;;;;3.42;61.19;99623.55;108801;1280;23272;-59
2022/03/24 04:57:57;;;;;;;86.60;46.80;;;;;;;3.65;60.49;99620.89;108785;1280;23281;-59
2022/03/24 05:00:26;;;;;;;98.00;46.20;;;;;;;3.85;60.15;99620.30;108626;1281;137696;-59
2022/03/24 05:02:54;;;;;;;93.50;43.70;;;;;;;4.04;59.36;99625.74;108770;1280;22277;-59
2022/03/24 05:05:22;;;;;;;81.00;42.20;;;;;;;4.19;58.68;99621.42;108834;1280;137577;-58
2022/03/24 05:07:50;;;;;;;79.20;43.30;;;;;;;4.33;58.25;99621.27;108759;1281;22418;-59
2022/03/24 05:10:19;;;;;;;88.70;44.20;;;;;;;4.45;57.77;99619.75;108676;1280;22421;-59
2022/03/24 05:13:08;;;;;;;84.20;42.60;;;;;;;4.55;57.30;99617.79;108650;1280;138533;-59
2022/03/24 05:15:38;;;;;;;83.80;42.10;;;;;;;4.62;57.15;99622.55;108795;1279;22511;-59
2022/03/24 05:18:06;;;;;;;74.50;40.30;;;;;;;4.69;56.63;99622.84;108653;1281;138248;-59
2022/03/24 05:20:34;;;;;;;76.20;40.30;;;;;;;4.75;56.37;99624.77;108781;1280;23052;-59
2022/03/24 05:23:23;;;;;;;67.20;37.20;;;;;;;4.78;56.40;99622.45;108557;1281;138473;-59
2022/03/24 05:25:51;;;;;;;76.80;38.60;;;;;;;4.83;56.65;99623.55;108625;1281;22440;-59
2022/03/24 05:28:19;;;;;;;72.20;37.90;;;;;;;4.87;56.27;99623.73;108774;1281;23371;-59
2022/03/24 05:30:47;;;;;;;72.80;38.20;;;;;;;4.90;55.93;99629.02;108646;1280;138356;-59
2022/03/24 05:33:15;;;;;;;72.70;39.20;;;;;;;4.92;56.00;99626.88;108822;1280;23258;-59
2022/03/24 05:35:44;;;;;;;73.50;38.70;;;;;;;4.95;56.10;99631.80;108681;1281;138222;-59
2022/03/24 05:38:13;;;;;;;75.70;37.60;;;;;;;4.96;55.93;99631.13;108779;1280;22492;-59
2022/03/24 05:42:12;;;;;;;72.70;38.30;;;;;;;4.99;55.66;99634.35;101623;1312;545381;-59
2022/03/24 05:44:40;;;;;;;67.70;35.00;;;;;;;4.96;55.50;99631.50;108175;1286;23446;-59
2022/03/24 05:47:08;;;;;;;68.70;37.50;;;;;;;4.96;55.56;99639.15;108143;1285;138421;-59
2022/03/24 05:49:37;;;;;;;67.70;36.80;;;;;;;4.95;55.45;99637.98;108338;1286;22468;-60
2022/03/24 05:52:14;;;;;;;79.30;39.50;;;;;;;4.95;55.84;99642.84;108361;1285;22626;-59
2022/03/24 05:54:42;;;;;;;74.00;38.20;;;;;;;4.97;55.79;99645.13;108110;1286;155686;-59
2022/03/24 05:57:11;;;;;;;71.40;36.70;;;;;;;4.98;55.72;99638.69;108636;1283;22465;-59
2022/03/24 05:59:39;;;;;;;65.10;36.50;;;;;;;5.00;55.96;99634.48;108299;1285;138876;-60
2022/03/24 06:02:09;;;;;;;72.30;38.50;;;;;;;5.00;55.57;99639.95;108445;1282;22245;-60
2022/03/24 06:04:40;;;;;;;65.20;35.70;;;;;;;4.98;55.75;99636.98;108456;1284;22397;-59
2022/03/24 06:07:10;;;;;;;69.40;37.70;;;;;;;5.00;55.90;99637.52;108493;1283;137890;-59
2022/03/24 06:09:38;;;;;;;69.50;37.10;;;;;;;5.05;55.88;99638.64;108610;1283;22432;-59
2022/03/24 06:12:10;;;;;;;65.40;36.90;;;;;;;5.08;55.87;99634.78;108395;1284;138111;-59
2022/03/24 06:14:40;;;;;;;73.90;35.80;;;;;;;5.12;55.70;99635.59;108354;1285;23895;-60
2022/03/24 06:17:09;;;;;;;69.60;34.90;;;;;;;5.16;55.74;99634.39;108292;1284;137444;-60
2022/03/24 06:19:38;;;;;;;69.70;38.20;;;;;;;5.22;55.39;99637.11;108421;1284;22460;-60
2022/03/24 06:22:07;;;;;;;68.10;35.70;;;;;;;5.24;55.39;99639.26;108374;1283;22425;-60
2022/03/24 06:24:35;;;;;;;70.30;34.70;;;;;;;5.23;55.35;99638.02;108287;1284;137396;-59
2022/03/24 06:27:05;;;;;;;64.00;34.70;;;;;;;5.24;55.48;99639.92;108371;1285;22454;-60
2022/03/24 06:29:33;;;;;;;69.80;35.70;;;;;;;5.27;55.63;99639.37;108329;1284;138113;-59
2022/03/24 06:32:01;;;;;;;68.10;33.80;;;;;;;5.30;55.48;99644.34;108389;1285;23217;-59
2022/03/24 06:34:30;;;;;;;72.00;35.10;;;;;;;5.33;55.59;99650.29;108416;1284;22248;-59
2022/03/24 06:36:59;;;;;;;59.60;32.50;;;;;;;5.37;55.54;99643.52;105000;1286;138718;-59
2022/03/24 06:39:27;;;;;;;64.60;33.30;;;;;;;5.40;55.42;99650.23;108312;1284;23057;-59
2022/03/24 06:41:55;;;;;;;61.10;32.80;;;;;;;5.42;55.22;99642.61;108224;1285;137017;-59
2022/03/24 06:44:24;;;;;;;70.20;32.40;;;;;;;5.43;55.21;99644.47;108327;1284;22279;-59
2022/03/24 06:46:52;;;;;;;57.20;32.40;;;;;;;5.47;55.74;99639.15;108305;1284;23667;-59
2022/03/24 06:49:20;;;;;;;54.90;28.60;;;;;;;5.54;55.33;99640.33;108251;1286;137146;-59
2022/03/24 06:51:49;;;;;;;58.70;29.90;;;;;;;5.61;55.03;99638.15;108342;1284;22430;-58
2022/03/24 06:54:17;;;;;;;60.20;33.10;;;;;;;5.66;55.27;99639.86;108123;1286;137363;-59
2022/03/24 06:56:46;;;;;;;58.20;33.70;;;;;;;5.69;55.06;99637.27;108358;1285;23508;-59
2022/03/24 06:59:14;;;;;;;60.40;30.90;;;;;;;5.73;54.83;99636.11;108264;1285;138382;-59
2022/03/24 07:01:44;;;;;;;51.30;29.80;;;;;;;5.79;54.81;99635.13;108314;1286;22255;-59
2022/03/24 07:04:12;;;;;;;57.00;32.30;;;;;;;5.88;54.71;99640.34;108365;1285;22456;-59
2022/03/24 07:06:42;;;;;;;58.40;32.90;;;;;;;5.93;54.14;99640.66;105555;1285;138008;-59
2022/03/24 07:09:10;;;;;;;51.00;29.10;;;;;;;5.94;54.41;99638.20;108310;1285;23540;-59
2022/03/24 07:11:38;;;;;;;46.40;27.70;;;;;;;5.99;54.43;99639.80;108245;1285;139292;-59
2022/03/24 07:14:08;;;;;;;49.50;27.00;;;;;;;6.04;54.21;99636.67;109438;1272;22448;-59
2022/03/24 07:16:36;;;;;;;49.60;24.90;;;;;;;6.11;53.93;99636.76;109386;1273;22446;-59
2022/03/24 07:19:06;;;;;;;44.00;24.30;;;;;;;6.18;53.76;99637.14;109258;1274;137331;-59
2022/03/24 07:21:46;;;;;;;41.70;23.00;;;;;;;6.26;53.17;99640.70;109402;1274;22439;-59
2022/03/24 07:24:15;;;;;;;49.30;23.60;;;;;;;6.32;52.65;99641.00;109326;1273;137029;-59
2022/03/24 07:26:44;;;;;;;44.90;23.20;;;;;;;6.36;52.43;99645.27;109438;1274;22517;-59
2022/03/24 07:29:13;;;;;;;44.60;22.80;;;;;;;6.37;52.41;99643.67;109307;1273;137657;-59
2022/03/24 07:31:41;;;;;;;40.60;23.60;;;;;;;6.39;52.61;99642.11;109334;1274;22410;-59
2022/03/24 07:34:09;;;;;;;42.20;22.80;;;;;;;6.43;52.37;99639.66;109450;1273;22408;-59
2022/03/24 07:36:43;;;;;;;28.70;18.20;;;;;;;6.47;52.01;99644.81;109291;1274;137014;-60
2022/03/24 07:39:11;;;;;;;33.80;19.20;;;;;;;6.51;51.46;99634.70;109214;1274;22554;-59
2022/03/24 07:41:41;;;;;;;32.20;18.20;;;;;;;6.58;51.41;99637.49;109209;1274;137261;-59
2022/03/24 07:44:09;;;;;;;32.10;19.20;;;;;;;6.64;51.22;99636.52;109453;1273;22476;-59
2022/03/24 07:46:38;;;;;;;33.60;18.70;;;;;;;6.67;51.34;99633.77;109460;1273;22534;-59
2022/03/24 07:49:06;;;;;;;36.60;19.10;;;;;;;6.73;51.10;99631.78;109364;1273;137290;-59
2022/03/24 07:51:35;;;;;;;31.00;19.30;;;;;;;6.78;50.88;99631.90;109437;1272;22427;-60
2022/03/24 07:54:04;;;;;;;35.20;20.90;;;;;;;6.81;50.62;99633.70;109162;1274;137978;-59
2022/03/24 07:56:34;;;;;;;36.00;21.70;;;;;;;6.82;50.58;99627.34;109477;1273;22436;-58
2022/03/24 07:59:02;;;;;;;40.10;22.30;;;;;;;6.86;50.43;99633.90;109358;1273;137269;-59
2022/03/24 08:01:32;;;;;;;39.50;24.50;;;;;;;6.89;50.71;99636.05;109455;1272;22444;-58
2022/03/24 08:04:02;;;;;;;42.90;24.00;;;;;;;6.95;51.10;99632.73;109428;1273;22486;-58
2022/03/24 08:06:31;;;;;;;39.40;20.30;;;;;;;7.00;50.67;99630.80;109321;1273;137270;-58
2022/03/24 08:08:59;;;;;;;36.10;19.20;;;;;;;7.01;50.58;99628.08;109478;1273;22364;-59
2022/03/24 08:11:27;;;;;;;40.60;22.30;;;;;;;7.04;50.26;99628.20;109326;1274;137148;-59
2022/03/24 08:13:56;;;;;;;53.40;27.10;;;;;;;7.04;50.18;99623.86;109498;1273;22446;-58
2022/03/24 08:16:37;;;;;;;45.60;27.00;;;;;;;7.06;49.70;99627.28;106754;1273;22726;-58
2022/03/24 08:19:06;;;;;;;55.90;33.10;;;;;;;7.07;49.50;99626.86;109387;1273;137936;-58
2022/03/24 08:21:53;;;;;;;51.00;30.80;;;;;;;7.07;49.97;99624.52;109442;1273;22441;-58
2022/03/24 08:24:21;;;;;;;44.60;26.80;;;;;;;7.06;49.65;99619.80;109403;1273;136962;-58
2022/03/24 08:26:49;;;;;;;41.60;23.50;;;;;;;7.07;49.59;99621.77;109481;1273;22410;-58
2022/03/24 08:29:17;;;;;;;36.30;21.80;;;;;;;7.07;49.46;99622.47;109367;1272;138158;-58
2022/03/24 08:31:47;;;;;;;49.60;28.90;;;;;;;7.07;49.74;99626.09;109478;1273;23622;-58
2022/03/24 08:34:17;;;;;;;48.60;30.90;;;;;;;7.05;49.83;99624.05;109459;1273;23183;-59
2022/03/24 08:36:45;;;;;;;49.80;28.90;;;;;;;7.02;49.99;99622.09;109327;1273;139720;-59
2022/03/24 08:39:13;;;;;;;57.50;33.30;;;;;;;7.02;49.86;99622.52;109472;1273;22407;-58
2022/03/24 08:41:41;;;;;;;54.40;30.20;;;;;;;7.03;49.77;99622.42;109348;1273;137806;-58
2022/03/24 08:44:11;;;;;;;62.40;35.40;;;;;;;7.06;50.04;99623.31;109426;1273;22400;-59
2022/03/24 08:46:39;;;;;;;55.00;33.20;;;;;;;7.14;49.73;99622.15;106673;1273;22567;-59
2022/03/24 08:49:08;;;;;;;49.10;30.80;;;;;;;7.19;49.53;99620.34;109246;1273;138073;-59
2022/03/24 08:51:37;;;;;;;57.90;33.60;;;;;;;7.22;49.11;99624.73;109477;1273;22409;-59
2022/03/24 08:54:07;;;;;;;54.50;29.00;;;;;;;7.24;48.94;99624.27;109343;1273;137879;-59
2022/03/24 08:56:35;;;;;;;48.00;29.00;;;;;;;7.23;48.90;99623.03;109462;1273;22273;-60
2022/03/24 08:59:04;;;;;;;54.70;31.20;;;;;;;7.28;49.00;99616.70;109369;1273;137198;-59
2022/03/24 09:01:33;;;;;;;56.90;32.80;;;;;;;7.33;49.10;99616.89;109520;1272;23178;-59
2022/03/24 09:04:01;;;;;;;58.00;31.10;;;;;;;7.39;48.90;99612.14;109484;1273;22400;-59
2022/03/24 09:06:39;;;;;;;60.90;32.30;;;;;;;7.47;48.29;99614.73;109383;1273;137283;-59
2022/03/24 09:09:27;;;;;;;51.60;29.90;;;;;;;7.49;47.95;99611.40;109476;1272;23256;-59
2022/03/24 09:11:55;;;;;;;46.10;26.90;;;;;;;7.51;48.10;99613.27;109368;1273;138361;-58
2022/03/24 09:14:43;;;;;;;;;;;;;;;7.59;48.11;99614.09;109483;1273;22559;-59
2022/03/24 09:17:11;;;;;;;57.40;23.00;;;;;;;7.66;47.69;99605.98;105499;1273;123674;-59
2022/03/24 09:20:00;;;;;;;37.00;22.60;;;;;;;7.73;46.90;99610.99;104903;1273;22562;-58
2022/03/24 09:22:30;;;;;;;38.10;21.10;;;;;;;7.78;46.43;99612.30;104933;1273;23668;-59
2022/03/24 09:25:07;;;;;;;;;;;;;;;7.83;45.72;99611.34;104827;1273;137357;-59
2022/03/24 09:27:36;;;;;;;33.80;19.10;;;;;;;7.87;45.48;99612.31;109398;1273;22484;-59
2022/03/24 09:30:05;;;;;;;35.20;18.80;;;;;;;7.92;45.32;99615.95;109359;1273;137157;-59
2022/03/24 09:32:35;;;;;;;36.30;21.50;;;;;;;7.93;45.22;99616.09;109407;1273;22566;-59
2022/03/24 09:35:04;;;;;;;37.70;21.40;;;;;;;7.92;45.34;99603.88;109255;1273;138387;-60
2022/03/24 09:37:33;;;;;;;43.30;24.80;;;;;;;7.95;45.47;99606.66;109388;1274;23043;-60
2022/03/24 09:40:02;;;;;;;33.90;22.30;;;;;;;8.00;44.68;99616.23;109461;1273;22542;-60
2022/03/24 09:42:31;;;;;;;42.50;24.10;;;;;;;7.99;44.48;99612.56;109367;1273;137296;-60
2022/03/24 09:45:01;;;;;;;46.20;24.80;;;;;;;7.99;44.86;99615.02;109270;1273;23388;-59
2022/03/24 09:47:30;;;;;;;38.80;23.40;;;;;;;8.01;45.25;99606.05;109389;1273;139041;-60
2022/03/24 09:49:58;;;;;;;48.80;26.50;;;;;;;8.04;45.38;99608.02;109444;1273;22462;-61
2022/03/24 09:52:27;;;;;;;53.40;29.50;;;;;;;8.13;45.71;99610.60;109467;1273;22266;-60
2022/03/24 09:54:55;;;;;;;55.30;30.20;;;;;;;8.22;45.23;99607.56;109353;1273;138424;-61
2022/03/24 09:57:24;;;;;;;45.40;24.80;;;;;;;8.24;44.70;99609.89;109498;1272;22553;-60
2022/03/24 09:59:52;;;;;;;49.30;27.90;;;;;;;8.24;44.17;99608.75;109395;1273;137685;-61
2022/03/24 10:02:21;;;;;;;47.30;26.80;;;;;;;8.21;44.24;99614.19;109397;1274;22441;-61
2022/03/24 10:04:52;;;;;;;37.20;22.30;;;;;;;8.15;44.28;99619.69;109454;1273;22242;-61
2022/03/24 10:07:25;;;;;;;34.50;20.70;;;;;;;8.04;44.18;99619.86;109380;1273;137432;-59
2022/03/24 10:10:25;;;;;;;33.80;18.50;;;;;;;7.99;44.79;99615.57;109477;1273;22449;-59
2022/03/24 10:12:55;;;;;;;37.40;18.00;;;;;;;8.03;44.50;99621.39;109358;1273;137471;-59
2022/03/24 10:15:23;;;;;;;30.50;18.00;;;;;;;8.04;44.24;99617.23;109461;1273;23505;-61
2022/03/24 10:17:53;;;;;;;38.30;20.20;;;;;;;8.05;44.48;99620.86;109293;1274;137336;-60
2022/03/24 10:20:23;;;;;;;30.10;18.10;;;;;;;8.06;43.93;99617.63;109425;1273;23391;-60
2022/03/24 10:23:05;;;;;;;43.40;20.50;;;;;;;8.04;43.93;99617.90;109402;1274;22427;-60
2022/03/24 10:25:45;;;;;;;36.70;22.60;;;;;;;8.05;44.12;99617.00;108590;1273;138165;-59
2022/03/24 10:28:17;;;;;;;38.00;22.30;;;;;;;8.10;44.29;99620.35;109430;1273;22534;-60
2022/03/24 10:30:55;;;;;;;35.60;20.30;;;;;;;8.15;44.36;99625.45;109294;1274;137373;-60
2022/03/24 10:33:34;;;;;;;39.40;21.90;;;;;;;8.15;44.47;99622.85;109456;1273;23250;-60
2022/03/24 10:36:13;;;;;;;70.60;36.80;;;;;;;8.13;44.21;99621.39;109354;1272;137727;-60
2022/03/24 10:38:47;;;;;;;49.60;26.30;;;;;;;8.12;43.81;99621.86;109454;1273;22464;-60
2022/03/24 10:41:25;;;;;;;33.80;19.50;;;;;;;8.11;43.38;99623.95;109300;1273;137789;-60
2022/03/24 10:43:58;;;;;;;50.10;24.80;;;;;;;8.08;43.37;99616.29;109425;1273;23455;-59
2022/03/24 10:46:28;;;;;;;76.40;34.50;;;;;;;8.08;43.31;99622.31;109412;1273;22403;-60
2022/03/24 10:48:58;;;;;;;38.40;22.40;;;;;;;8.07;43.68;99618.84;109289;1274;138744;-60
2022/03/24 10:51:28;;;;;;;37.90;21.00;;;;;;;8.07;43.16;99621.27;109184;1273;23285;-60
2022/03/24 10:54:22;;;;;;;31.30;19.30;;;;;;;8.04;42.63;99621.65;109297;1273;138299;-60
2022/03/24 10:56:53;;;;;;;28.10;17.20;;;;;;;8.01;42.54;99619.45;106326;1273;22752;-59
2022/03/24 10:59:23;;;;;;;28.50;16.30;;;;;;;7.97;42.53;99619.63;109312;1273;138388;-60
2022/03/24 11:01:53;;;;;;;29.80;18.90;;;;;;;7.95;42.40;99621.48;109481;1273;23788;-59
2022/03/24 11:04:23;;;;;;;38.30;19.00;;;;;;;7.95;42.49;99617.48;109419;1273;22404;-60
2022/03/24 11:06:52;;;;;;;43.20;19.90;;;;;;;7.97;42.40;99616.82;109059;1274;138472;-60
2022/03/24 11:09:27;;;;;;;27.80;14.00;;;;;;;7.99;42.37;99626.30;109499;1273;22383;-60
2022/03/24 11:12:25;;;;;;;34.90;14.80;;;;;;;8.00;42.07;99629.09;109278;1274;137765;-60
2022/03/24 11:14:57;;;;;;;38.90;17.80;;;;;;;8.00;42.05;99621.77;109505;1272;22501;-60
2022/03/24 11:17:27;;;;;;;45.40;27.20;;;;;;;8.02;42.03;99622.95;109289;1274;139686;-60
2022/03/24 11:20:15;;;;;;;41.80;22.90;;;;;;;8.05;41.75;99621.94;109446;1273;22582;-60
2022/03/24 11:22:58;;;;;;;37.80;18.10;;;;;;;8.06;41.91;99619.04;109453;1273;23159;-62
2022/03/24 11:25:27;;;;;;;32.80;20.60;;;;;;;8.03;41.99;99623.19;109264;1273;138549;-61
2022/03/24 11:27:56;;;;;;;78.50;25.00;;;;;;;7.99;42.01;99624.09;109489;1272;22406;-60
2022/03/24 11:30:25;;;;;;;39.80;22.90;;;;;;;7.99;42.06;99624.94;109362;1272;137456;-61
2022/03/24 11:32:54;;;;;;;52.20;21.90;;;;;;;7.99;41.84;99633.27;109476;1272;23178;-60
2022/03/24 11:35:23;;;;;;;35.40;21.60;;;;;;;7.98;41.24;99635.00;109283;1273;138009;-60